Terminal Aerodrome Forecast
Issued by NWS

Home | Current Version | Previous Version | Text Only | Print | Product List | Glossary On
Versions: 1 2 3 4 5 6 7 8 9 10 11 12 13 14 15
350
FTUS41 KPHI 291720
TAFMIV
TAF
KMIV 291720Z 2918/3018 31007KT P6SM FEW040
     FM300200 02003KT P6SM FEW200
     FM301500 10005KT P6SM SCT050=

USA.gov is the U.S. government's official web portal to all federal, state and local government web resources and services.